Glenville, WV

8:22 PM EDT on August 26, 2016 (GMT -0400)
Quirky Towers, Vadis | | Change Station

Elev 837 ft 39.04 °N, 80.71 °W | Updated 60 seconds ago

Clear
Clear
75.6 °F
Feels Like 74 °F
N
0.7
Wind Variable Wind from North
Gusts 0.7 mph

Today
High -- | Low -- °F
--% Chance of Precip.
Yesterday
High -- | Low -- °F
Precip. -- in
Pressure 30.07 in
Visibility 10.0 miles
Clouds Clear
Heat Index 74 °F
Dew Point 75 °F
Humidity 99%
Rainfall 0.69 in
Snow Depth Not available.
6:47 AM 8:01 PM
Waning Crescent, 30% visible
METAR KCKB 262353Z 00000KT 10SM CLR 29/21 A3012 RMK AO2 SLP183 T02890211 10322 20289 53001
Pressure 30.07 in
Visibility 10.0 miles
Clouds Clear
Heat Index 74 °F
Dew Point 75 °F
Humidity 99%
Rainfall 0.69 in
Snow Depth Not available.
6:47 AM 8:01 PM
Waning Crescent, 30% visible
METAR KCKB 262353Z 00000KT 10SM CLR 29/21 A3012 RMK AO2 SLP183 T02890211 10322 20289 53001

10-Day Weather Forecast

Almanac

Astronomy

Aug. 26, 2016 Rise Set
Actual Time
Civil Twilight
Nautical Twilight
Astronomical Twilight
Moon
Length of Visible Light
Length of Day
Tomorrow will be .
, % of the Moon is Illuminated

Today's Extremes

State Highs State Lows

Community

WunderPhotos

Upload Photos

1,935,257 photos uploaded!

WunderBlog® & News

Nearby

Air Quality

  Air Quality AQ Index Pollutant
Not available.

Snow Depth

Station Depth Elevation

Earthquake Activity

City Distance Mag. Time & Date
Minimum magnitude displayed is 2.5.

Coastal Water Temperatures

Place Temperature

Stations

Nearby Weather Stations

Station Location Temp. Windchill Dew Point Humidity Wind Precip. Elev Updated Type
                   

Watches & Warnings

There are currently no watches in effect.